sensor_id;sensor_type;location;lat;lon;timestamp;P1;durP1;ratioP1;P2;durP2;ratioP2
80836;SDS011;70251;60.008;30.404;2023-07-13T00:00:41;3.83;;;0.75;;
80836;SDS011;70251;60.008;30.404;2023-07-13T00:03:07;3.17;;;0.80;;
80836;SDS011;70251;60.008;30.404;2023-07-13T00:05:33;4.47;;;0.70;;
80836;SDS011;70251;60.008;30.404;2023-07-13T00:07:58;3.27;;;0.50;;
80836;SDS011;70251;60.008;30.404;2023-07-13T00:10:24;3.35;;;0.80;;
80836;SDS011;70251;60.008;30.404;2023-07-13T00:12:49;7.80;;;0.63;;
80836;SDS011;70251;60.008;30.404;2023-07-13T00:15:21;2.92;;;0.50;;
80836;SDS011;70251;60.008;30.404;2023-07-13T00:17:49;2.97;;;0.70;;
80836;SDS011;70251;60.008;30.404;2023-07-13T00:20:17;3.23;;;0.60;;
80836;SDS011;70251;60.008;30.404;2023-07-13T00:22:46;2.90;;;0.70;;
80836;SDS011;70251;60.008;30.404;2023-07-13T00:25:15;3.03;;;0.50;;
80836;SDS011;70251;60.008;30.404;2023-07-13T00:27:42;3.38;;;0.52;;
80836;SDS011;70251;60.008;30.404;2023-07-13T00:30:09;4.45;;;0.57;;
80836;SDS011;70251;60.008;30.404;2023-07-13T00:32:35;2.77;;;0.40;;
80836;SDS011;70251;60.008;30.404;2023-07-13T00:35:01;3.33;;;0.60;;
80836;SDS011;70251;60.008;30.404;2023-07-13T00:37:29;5.60;;;0.60;;
80836;SDS011;70251;60.008;30.404;2023-07-13T00:39:55;1.90;;;0.40;;
80836;SDS011;70251;60.008;30.404;2023-07-13T00:42:20;3.30;;;0.68;;
80836;SDS011;70251;60.008;30.404;2023-07-13T00:47:31;2.65;;;0.40;;
80836;SDS011;70251;60.008;30.404;2023-07-13T00:49:57;3.47;;;0.60;;
80836;SDS011;70251;60.008;30.404;2023-07-13T00:52:23;3.30;;;0.57;;
80836;SDS011;70251;60.008;30.404;2023-07-13T00:54:49;3.53;;;0.40;;
80836;SDS011;70251;60.008;30.404;2023-07-13T00:57:15;3.23;;;0.60;;
80836;SDS011;70251;60.008;30.404;2023-07-13T00:59:46;2.28;;;0.50;;
80836;SDS011;70251;60.008;30.404;2023-07-13T01:02:16;2.20;;;0.50;;
80836;SDS011;70251;60.008;30.404;2023-07-13T01:04:42;3.27;;;0.63;;
80836;SDS011;70251;60.008;30.404;2023-07-13T01:07:09;2.65;;;0.47;;
80836;SDS011;70251;60.008;30.404;2023-07-13T01:09:36;2.85;;;0.65;;
80836;SDS011;70251;60.008;30.404;2023-07-13T01:12:02;3.77;;;0.70;;
80836;SDS011;70251;60.008;30.404;2023-07-13T01:14:28;3.13;;;0.70;;
80836;SDS011;70251;60.008;30.404;2023-07-13T01:16:54;3.58;;;0.60;;
80836;SDS011;70251;60.008;30.404;2023-07-13T01:19:37;3.90;;;0.75;;
80836;SDS011;70251;60.008;30.404;2023-07-13T01:22:09;3.17;;;0.80;;
80836;SDS011;70251;60.008;30.404;2023-07-13T01:24:40;6.47;;;1.33;;
80836;SDS011;70251;60.008;30.404;2023-07-13T01:27:09;4.03;;;1.00;;
80836;SDS011;70251;60.008;30.404;2023-07-13T01:29:37;4.82;;;0.88;;
80836;SDS011;70251;60.008;30.404;2023-07-13T01:32:08;3.05;;;0.80;;
80836;SDS011;70251;60.008;30.404;2023-07-13T01:34:53;3.10;;;0.83;;
80836;SDS011;70251;60.008;30.404;2023-07-13T01:37:25;5.97;;;1.00;;
80836;SDS011;70251;60.008;30.404;2023-07-13T01:40:02;5.68;;;1.13;;
80836;SDS011;70251;60.008;30.404;2023-07-13T01:42:29;6.13;;;1.10;;
80836;SDS011;70251;60.008;30.404;2023-07-13T01:44:55;6.57;;;1.30;;
80836;SDS011;70251;60.008;30.404;2023-07-13T01:47:22;7.25;;;1.20;;
80836;SDS011;70251;60.008;30.404;2023-07-13T01:49:48;4.05;;;1.20;;
80836;SDS011;70251;60.008;30.404;2023-07-13T01:52:16;4.00;;;1.30;;
80836;SDS011;70251;60.008;30.404;2023-07-13T01:54:41;4.13;;;0.80;;
80836;SDS011;70251;60.008;30.404;2023-07-13T01:57:09;4.40;;;0.90;;
80836;SDS011;70251;60.008;30.404;2023-07-13T01:59:35;4.97;;;1.10;;
80836;SDS011;70251;60.008;30.404;2023-07-13T02:02:00;3.80;;;0.90;;
80836;SDS011;70251;60.008;30.404;2023-07-13T02:04:26;6.13;;;1.15;;
80836;SDS011;70251;60.008;30.404;2023-07-13T02:06:57;7.23;;;1.10;;
80836;SDS011;70251;60.008;30.404;2023-07-13T02:09:22;3.75;;;0.95;;
80836;SDS011;70251;60.008;30.404;2023-07-13T02:11:48;7.57;;;1.20;;
80836;SDS011;70251;60.008;30.404;2023-07-13T02:14:16;5.05;;;1.30;;
80836;SDS011;70251;60.008;30.404;2023-07-13T02:16:42;3.53;;;1.08;;
80836;SDS011;70251;60.008;30.404;2023-07-13T02:19:10;4.55;;;1.10;;
80836;SDS011;70251;60.008;30.404;2023-07-13T02:21:36;5.63;;;1.70;;
80836;SDS011;70251;60.008;30.404;2023-07-13T02:24:04;6.85;;;1.63;;
80836;SDS011;70251;60.008;30.404;2023-07-13T02:26:30;3.90;;;1.20;;
80836;SDS011;70251;60.008;30.404;2023-07-13T02:28:55;5.23;;;1.30;;
80836;SDS011;70251;60.008;30.404;2023-07-13T02:31:27;4.68;;;1.17;;
80836;SDS011;70251;60.008;30.404;2023-07-13T02:33:52;6.35;;;0.80;;
80836;SDS011;70251;60.008;30.404;2023-07-13T02:36:19;4.03;;;0.90;;
80836;SDS011;70251;60.008;30.404;2023-07-13T02:38:45;5.05;;;1.50;;
80836;SDS011;70251;60.008;30.404;2023-07-13T02:41:16;7.65;;;2.00;;
80836;SDS011;70251;60.008;30.404;2023-07-13T02:43:43;12.60;;;2.55;;
80836;SDS011;70251;60.008;30.404;2023-07-13T02:46:09;5.90;;;1.60;;
80836;SDS011;70251;60.008;30.404;2023-07-13T02:48:36;6.57;;;1.67;;
80836;SDS011;70251;60.008;30.404;2023-07-13T02:51:07;6.57;;;1.52;;
80836;SDS011;70251;60.008;30.404;2023-07-13T02:53:33;7.50;;;1.60;;
80836;SDS011;70251;60.008;30.404;2023-07-13T02:56:00;9.82;;;1.85;;
80836;SDS011;70251;60.008;30.404;2023-07-13T02:58:26;7.40;;;1.50;;
80836;SDS011;70251;60.008;30.404;2023-07-13T03:00:51;5.50;;;1.50;;
80836;SDS011;70251;60.008;30.404;2023-07-13T03:03:20;6.00;;;1.40;;
80836;SDS011;70251;60.008;30.404;2023-07-13T03:05:45;5.75;;;1.10;;
80836;SDS011;70251;60.008;30.404;2023-07-13T03:08:15;6.80;;;1.17;;
80836;SDS011;70251;60.008;30.404;2023-07-13T03:10:41;4.88;;;1.38;;
80836;SDS011;70251;60.008;30.404;2023-07-13T03:13:06;4.40;;;0.88;;
80836;SDS011;70251;60.008;30.404;2023-07-13T03:15:38;5.77;;;0.80;;
80836;SDS011;70251;60.008;30.404;2023-07-13T03:18:06;3.60;;;0.90;;
80836;SDS011;70251;60.008;30.404;2023-07-13T03:20:32;4.27;;;0.77;;
80836;SDS011;70251;60.008;30.404;2023-07-13T03:23:02;4.47;;;0.77;;
80836;SDS011;70251;60.008;30.404;2023-07-13T03:25:28;3.72;;;0.70;;
80836;SDS011;70251;60.008;30.404;2023-07-13T03:27:53;2.97;;;0.80;;
80836;SDS011;70251;60.008;30.404;2023-07-13T03:30:19;3.67;;;0.60;;
80836;SDS011;70251;60.008;30.404;2023-07-13T03:32:44;3.27;;;0.60;;
80836;SDS011;70251;60.008;30.404;2023-07-13T03:35:10;5.95;;;0.57;;
80836;SDS011;70251;60.008;30.404;2023-07-13T03:37:39;2.80;;;0.50;;
80836;SDS011;70251;60.008;30.404;2023-07-13T03:40:08;4.13;;;0.70;;
80836;SDS011;70251;60.008;30.404;2023-07-13T03:42:34;4.22;;;0.60;;
80836;SDS011;70251;60.008;30.404;2023-07-13T03:45:00;2.50;;;0.40;;
80836;SDS011;70251;60.008;30.404;2023-07-13T03:47:25;3.90;;;0.40;;
80836;SDS011;70251;60.008;30.404;2023-07-13T03:49:51;3.20;;;0.50;;
80836;SDS011;70251;60.008;30.404;2023-07-13T03:52:16;3.33;;;0.77;;
80836;SDS011;70251;60.008;30.404;2023-07-13T03:54:42;5.13;;;0.80;;
80836;SDS011;70251;60.008;30.404;2023-07-13T03:57:08;4.38;;;0.73;;
80836;SDS011;70251;60.008;30.404;2023-07-13T03:59:34;3.00;;;0.60;;
80836;SDS011;70251;60.008;30.404;2023-07-13T04:02:00;3.72;;;0.70;;
80836;SDS011;70251;60.008;30.404;2023-07-13T04:04:30;2.50;;;0.50;;
80836;SDS011;70251;60.008;30.404;2023-07-13T04:06:56;3.83;;;0.70;;
80836;SDS011;70251;60.008;30.404;2023-07-13T04:09:29;3.20;;;0.70;;
80836;SDS011;70251;60.008;30.404;2023-07-13T04:11:54;4.25;;;0.60;;
80836;SDS011;70251;60.008;30.404;2023-07-13T04:14:22;2.50;;;0.50;;
80836;SDS011;70251;60.008;30.404;2023-07-13T04:16:48;2.72;;;0.55;;
80836;SDS011;70251;60.008;30.404;2023-07-13T04:19:13;3.20;;;0.43;;
80836;SDS011;70251;60.008;30.404;2023-07-13T04:21:39;4.70;;;0.60;;
80836;SDS011;70251;60.008;30.404;2023-07-13T04:24:05;2.53;;;0.50;;
80836;SDS011;70251;60.008;30.404;2023-07-13T04:26:30;3.85;;;0.57;;
80836;SDS011;70251;60.008;30.404;2023-07-13T04:28:56;3.57;;;0.50;;
80836;SDS011;70251;60.008;30.404;2023-07-13T04:31:23;3.30;;;0.50;;
80836;SDS011;70251;60.008;30.404;2023-07-13T04:33:48;2.93;;;0.40;;
80836;SDS011;70251;60.008;30.404;2023-07-13T04:36:19;2.60;;;0.40;;
80836;SDS011;70251;60.008;30.404;2023-07-13T04:38:44;3.15;;;0.40;;
80836;SDS011;70251;60.008;30.404;2023-07-13T04:41:10;3.57;;;0.40;;
80836;SDS011;70251;60.008;30.404;2023-07-13T04:43:39;2.97;;;0.50;;
80836;SDS011;70251;60.008;30.404;2023-07-13T04:46:05;2.47;;;0.47;;
80836;SDS011;70251;60.008;30.404;2023-07-13T04:48:43;2.27;;;0.30;;
80836;SDS011;70251;60.008;30.404;2023-07-13T04:51:09;2.33;;;0.38;;
80836;SDS011;70251;60.008;30.404;2023-07-13T04:53:35;2.35;;;0.40;;
80836;SDS011;70251;60.008;30.404;2023-07-13T04:56:01;1.63;;;0.30;;
80836;SDS011;70251;60.008;30.404;2023-07-13T04:58:27;2.92;;;0.40;;
80836;SDS011;70251;60.008;30.404;2023-07-13T05:00:53;1.53;;;0.27;;
80836;SDS011;70251;60.008;30.404;2023-07-13T05:03:19;2.53;;;0.40;;
80836;SDS011;70251;60.008;30.404;2023-07-13T05:05:54;3.72;;;0.52;;
80836;SDS011;70251;60.008;30.404;2023-07-13T05:08:23;3.92;;;0.40;;
80836;SDS011;70251;60.008;30.404;2023-07-13T05:10:52;5.10;;;0.52;;
80836;SDS011;70251;60.008;30.404;2023-07-13T05:13:18;2.63;;;0.52;;
80836;SDS011;70251;60.008;30.404;2023-07-13T05:15:45;3.67;;;0.43;;
80836;SDS011;70251;60.008;30.404;2023-07-13T05:18:11;3.05;;;0.52;;
80836;SDS011;70251;60.008;30.404;2023-07-13T05:20:36;2.57;;;0.47;;
80836;SDS011;70251;60.008;30.404;2023-07-13T05:23:04;2.97;;;0.47;;
80836;SDS011;70251;60.008;30.404;2023-07-13T05:25:30;2.92;;;0.45;;
80836;SDS011;70251;60.008;30.404;2023-07-13T05:27:55;2.30;;;0.47;;
80836;SDS011;70251;60.008;30.404;2023-07-13T05:30:21;3.57;;;0.37;;
80836;SDS011;70251;60.008;30.404;2023-07-13T05:32:46;3.40;;;0.50;;
80836;SDS011;70251;60.008;30.404;2023-07-13T05:35:15;2.90;;;0.40;;
80836;SDS011;70251;60.008;30.404;2023-07-13T05:37:41;2.30;;;0.52;;
80836;SDS011;70251;60.008;30.404;2023-07-13T05:40:07;3.65;;;0.40;;
80836;SDS011;70251;60.008;30.404;2023-07-13T05:42:32;2.43;;;0.30;;
80836;SDS011;70251;60.008;30.404;2023-07-13T05:44:58;1.55;;;0.30;;
80836;SDS011;70251;60.008;30.404;2023-07-13T05:47:24;1.53;;;0.30;;
80836;SDS011;70251;60.008;30.404;2023-07-13T05:49:49;2.30;;;0.40;;
80836;SDS011;70251;60.008;30.404;2023-07-13T05:52:15;5.87;;;0.53;;
80836;SDS011;70251;60.008;30.404;2023-07-13T05:54:40;2.70;;;0.40;;
80836;SDS011;70251;60.008;30.404;2023-07-13T05:57:06;3.42;;;0.38;;
80836;SDS011;70251;60.008;30.404;2023-07-13T05:59:32;3.47;;;0.53;;
80836;SDS011;70251;60.008;30.404;2023-07-13T06:01:57;2.47;;;0.50;;
80836;SDS011;70251;60.008;30.404;2023-07-13T06:04:26;2.30;;;0.40;;
80836;SDS011;70251;60.008;30.404;2023-07-13T06:06:51;3.80;;;0.40;;
80836;SDS011;70251;60.008;30.404;2023-07-13T06:09:18;3.10;;;0.40;;
80836;SDS011;70251;60.008;30.404;2023-07-13T06:11:43;2.83;;;0.45;;
80836;SDS011;70251;60.008;30.404;2023-07-13T06:14:09;2.17;;;0.40;;
80836;SDS011;70251;60.008;30.404;2023-07-13T06:16:35;3.75;;;0.43;;
80836;SDS011;70251;60.008;30.404;2023-07-13T06:19:00;3.17;;;0.43;;
80836;SDS011;70251;60.008;30.404;2023-07-13T06:21:26;3.97;;;0.55;;
80836;SDS011;70251;60.008;30.404;2023-07-13T06:23:52;2.90;;;0.60;;
80836;SDS011;70251;60.008;30.404;2023-07-13T06:26:18;6.30;;;0.80;;
80836;SDS011;70251;60.008;30.404;2023-07-13T06:28:47;3.45;;;0.50;;
80836;SDS011;70251;60.008;30.404;2023-07-13T06:31:16;4.93;;;0.70;;
80836;SDS011;70251;60.008;30.404;2023-07-13T06:33:41;4.68;;;0.80;;
80836;SDS011;70251;60.008;30.404;2023-07-13T06:36:07;3.97;;;0.63;;
80836;SDS011;70251;60.008;30.404;2023-07-13T06:38:34;4.33;;;0.60;;
80836;SDS011;70251;60.008;30.404;2023-07-13T06:41:00;3.80;;;0.40;;
80836;SDS011;70251;60.008;30.404;2023-07-13T06:43:25;2.92;;;0.55;;
80836;SDS011;70251;60.008;30.404;2023-07-13T06:45:54;4.83;;;0.50;;
80836;SDS011;70251;60.008;30.404;2023-07-13T06:48:20;4.05;;;0.60;;
80836;SDS011;70251;60.008;30.404;2023-07-13T06:50:53;6.38;;;0.65;;
80836;SDS011;70251;60.008;30.404;2023-07-13T06:53:19;5.53;;;1.40;;
80836;SDS011;70251;60.008;30.404;2023-07-13T06:55:45;6.53;;;2.90;;
80836;SDS011;70251;60.008;30.404;2023-07-13T06:58:15;4.70;;;1.15;;
80836;SDS011;70251;60.008;30.404;2023-07-13T07:00:42;4.15;;;0.63;;
80836;SDS011;70251;60.008;30.404;2023-07-13T07:03:11;4.90;;;0.85;;
80836;SDS011;70251;60.008;30.404;2023-07-13T07:05:36;5.33;;;1.03;;
80836;SDS011;70251;60.008;30.404;2023-07-13T07:08:02;5.82;;;0.88;;
80836;SDS011;70251;60.008;30.404;2023-07-13T07:10:28;4.23;;;0.67;;
80836;SDS011;70251;60.008;30.404;2023-07-13T07:12:55;5.40;;;0.82;;
80836;SDS011;70251;60.008;30.404;2023-07-13T07:15:20;4.13;;;0.60;;
80836;SDS011;70251;60.008;30.404;2023-07-13T07:17:46;5.73;;;0.87;;
80836;SDS011;70251;60.008;30.404;2023-07-13T07:20:12;2.90;;;0.50;;
80836;SDS011;70251;60.008;30.404;2023-07-13T07:22:40;4.22;;;0.60;;
80836;SDS011;70251;60.008;30.404;2023-07-13T07:25:06;6.82;;;0.80;;
80836;SDS011;70251;60.008;30.404;2023-07-13T07:27:32;3.47;;;0.60;;
80836;SDS011;70251;60.008;30.404;2023-07-13T07:29:58;3.60;;;0.60;;
80836;SDS011;70251;60.008;30.404;2023-07-13T07:32:24;3.58;;;0.40;;
80836;SDS011;70251;60.008;30.404;2023-07-13T07:34:50;2.50;;;0.50;;
80836;SDS011;70251;60.008;30.404;2023-07-13T07:37:15;7.23;;;1.60;;
80836;SDS011;70251;60.008;30.404;2023-07-13T07:39:42;6.75;;;1.55;;
80836;SDS011;70251;60.008;30.404;2023-07-13T07:42:08;7.43;;;2.10;;
80836;SDS011;70251;60.008;30.404;2023-07-13T07:44:34;3.80;;;0.98;;
80836;SDS011;70251;60.008;30.404;2023-07-13T07:47:00;5.87;;;0.77;;
80836;SDS011;70251;60.008;30.404;2023-07-13T07:49:26;7.45;;;2.47;;
80836;SDS011;70251;60.008;30.404;2023-07-13T07:51:52;5.65;;;1.10;;
80836;SDS011;70251;60.008;30.404;2023-07-13T07:54:18;4.63;;;0.60;;
80836;SDS011;70251;60.008;30.404;2023-07-13T07:56:43;2.70;;;0.40;;
80836;SDS011;70251;60.008;30.404;2023-07-13T07:59:09;5.07;;;0.60;;
80836;SDS011;70251;60.008;30.404;2023-07-13T08:01:38;3.97;;;0.50;;
80836;SDS011;70251;60.008;30.404;2023-07-13T08:04:03;5.57;;;0.60;;
80836;SDS011;70251;60.008;30.404;2023-07-13T08:06:31;3.60;;;0.65;;
80836;SDS011;70251;60.008;30.404;2023-07-13T08:08:58;5.73;;;0.50;;
80836;SDS011;70251;60.008;30.404;2023-07-13T08:11:29;3.00;;;0.50;;
80836;SDS011;70251;60.008;30.404;2023-07-13T08:13:54;4.60;;;0.55;;
80836;SDS011;70251;60.008;30.404;2023-07-13T08:16:20;3.77;;;0.60;;
80836;SDS011;70251;60.008;30.404;2023-07-13T08:18:46;4.00;;;0.95;;
80836;SDS011;70251;60.008;30.404;2023-07-13T08:21:12;3.43;;;0.67;;
80836;SDS011;70251;60.008;30.404;2023-07-13T08:23:40;2.97;;;0.55;;
80836;SDS011;70251;60.008;30.404;2023-07-13T08:26:06;4.88;;;0.50;;
80836;SDS011;70251;60.008;30.404;2023-07-13T08:28:32;4.37;;;0.40;;
80836;SDS011;70251;60.008;30.404;2023-07-13T08:31:05;4.35;;;0.80;;
80836;SDS011;70251;60.008;30.404;2023-07-13T08:33:33;4.45;;;0.70;;
80836;SDS011;70251;60.008;30.404;2023-07-13T08:36:03;5.27;;;0.63;;
80836;SDS011;70251;60.008;30.404;2023-07-13T08:38:30;5.13;;;0.60;;
80836;SDS011;70251;60.008;30.404;2023-07-13T08:40:56;3.23;;;0.70;;
80836;SDS011;70251;60.008;30.404;2023-07-13T08:43:26;7.33;;;0.80;;
80836;SDS011;70251;60.008;30.404;2023-07-13T08:48:48;6.00;;;0.80;;
80836;SDS011;70251;60.008;30.404;2023-07-13T08:53:55;5.32;;;0.80;;
80836;SDS011;70251;60.008;30.404;2023-07-13T08:56:25;4.40;;;0.70;;
80836;SDS011;70251;60.008;30.404;2023-07-13T08:58:55;3.38;;;0.63;;
80836;SDS011;70251;60.008;30.404;2023-07-13T09:04:20;6.55;;;1.10;;
80836;SDS011;70251;60.008;30.404;2023-07-13T09:17:48;11.38;;;1.40;;
80836;SDS011;70251;60.008;30.404;2023-07-13T09:20:23;2.97;;;0.77;;
80836;SDS011;70251;60.008;30.404;2023-07-13T09:22:54;5.03;;;1.57;;
80836;SDS011;70251;60.008;30.404;2023-07-13T09:25:31;3.67;;;0.63;;
80836;SDS011;70251;60.008;30.404;2023-07-13T09:28:02;3.92;;;0.70;;
80836;SDS011;70251;60.008;30.404;2023-07-13T09:33:21;6.03;;;1.60;;
80836;SDS011;70251;60.008;30.404;2023-07-13T09:35:48;4.50;;;1.00;;
80836;SDS011;70251;60.008;30.404;2023-07-13T09:38:18;4.07;;;1.00;;
80836;SDS011;70251;60.008;30.404;2023-07-13T09:43:30;3.67;;;1.10;;
80836;SDS011;70251;60.008;30.404;2023-07-13T09:45:56;4.33;;;1.27;;
80836;SDS011;70251;60.008;30.404;2023-07-13T09:48:25;7.03;;;1.30;;
80836;SDS011;70251;60.008;30.404;2023-07-13T09:50:58;4.55;;;0.95;;
80836;SDS011;70251;60.008;30.404;2023-07-13T09:53:40;8.18;;;1.10;;
80836;SDS011;70251;60.008;30.404;2023-07-13T09:56:25;6.22;;;1.20;;
80836;SDS011;70251;60.008;30.404;2023-07-13T09:58:55;5.23;;;1.30;;
80836;SDS011;70251;60.008;30.404;2023-07-13T10:01:32;6.38;;;0.90;;
80836;SDS011;70251;60.008;30.404;2023-07-13T10:04:00;4.30;;;0.80;;
80836;SDS011;70251;60.008;30.404;2023-07-13T10:06:26;4.35;;;1.10;;
80836;SDS011;70251;60.008;30.404;2023-07-13T10:08:52;5.60;;;1.10;;
80836;SDS011;70251;60.008;30.404;2023-07-13T10:11:36;6.10;;;0.95;;
80836;SDS011;70251;60.008;30.404;2023-07-13T10:14:23;3.65;;;0.85;;
80836;SDS011;70251;60.008;30.404;2023-07-13T10:16:52;6.63;;;1.13;;
80836;SDS011;70251;60.008;30.404;2023-07-13T10:19:26;4.00;;;1.00;;
80836;SDS011;70251;60.008;30.404;2023-07-13T10:21:59;9.20;;;0.97;;
80836;SDS011;70251;60.008;30.404;2023-07-13T10:24:27;6.18;;;1.33;;
80836;SDS011;70251;60.008;30.404;2023-07-13T10:29:34;6.47;;;1.42;;
80836;SDS011;70251;60.008;30.404;2023-07-13T10:32:09;5.80;;;1.20;;
80836;SDS011;70251;60.008;30.404;2023-07-13T10:34:36;5.93;;;1.30;;
80836;SDS011;70251;60.008;30.404;2023-07-13T10:37:02;8.05;;;1.50;;
80836;SDS011;70251;60.008;30.404;2023-07-13T10:39:33;5.32;;;1.10;;
80836;SDS011;70251;60.008;30.404;2023-07-13T10:42:04;4.32;;;0.90;;
80836;SDS011;70251;60.008;30.404;2023-07-13T10:44:37;16.90;;;1.50;;
80836;SDS011;70251;60.008;30.404;2023-07-13T10:47:21;5.85;;;1.33;;
80836;SDS011;70251;60.008;30.404;2023-07-13T10:49:47;6.57;;;1.33;;
80836;SDS011;70251;60.008;30.404;2023-07-13T10:58:38;7.43;;;1.30;;
80836;SDS011;70251;60.008;30.404;2023-07-13T11:01:09;4.38;;;1.20;;
80836;SDS011;70251;60.008;30.404;2023-07-13T11:03:38;5.18;;;1.08;;
80836;SDS011;70251;60.008;30.404;2023-07-13T11:06:34;8.45;;;2.92;;
80836;SDS011;70251;60.008;30.404;2023-07-13T11:09:17;6.80;;;1.52;;
80836;SDS011;70251;60.008;30.404;2023-07-13T11:11:43;6.27;;;1.07;;
80836;SDS011;70251;60.008;30.404;2023-07-13T11:14:34;5.90;;;1.00;;
80836;SDS011;70251;60.008;30.404;2023-07-13T11:16:55;5.60;;;1.10;;
80836;SDS011;70251;60.008;30.404;2023-07-13T11:24:48;4.10;;;1.30;;
80836;SDS011;70251;60.008;30.404;2023-07-13T11:27:22;6.40;;;1.10;;
80836;SDS011;70251;60.008;30.404;2023-07-13T11:32:45;3.85;;;0.82;;
80836;SDS011;70251;60.008;30.404;2023-07-13T11:35:16;4.97;;;1.67;;
80836;SDS011;70251;60.008;30.404;2023-07-13T11:37:51;4.20;;;0.93;;
80836;SDS011;70251;60.008;30.404;2023-07-13T11:40:16;5.57;;;1.02;;
80836;SDS011;70251;60.008;30.404;2023-07-13T11:42:42;3.28;;;1.00;;
80836;SDS011;70251;60.008;30.404;2023-07-13T11:45:20;4.22;;;1.10;;
80836;SDS011;70251;60.008;30.404;2023-07-13T11:47:51;5.57;;;1.48;;
80836;SDS011;70251;60.008;30.404;2023-07-13T11:50:20;4.70;;;1.10;;
80836;SDS011;70251;60.008;30.404;2023-07-13T11:52:47;3.97;;;1.00;;
80836;SDS011;70251;60.008;30.404;2023-07-13T11:55:18;4.03;;;1.00;;
80836;SDS011;70251;60.008;30.404;2023-07-13T11:57:47;4.63;;;1.03;;
80836;SDS011;70251;60.008;30.404;2023-07-13T12:00:25;7.57;;;1.10;;
80836;SDS011;70251;60.008;30.404;2023-07-13T12:02:55;4.20;;;1.10;;
80836;SDS011;70251;60.008;30.404;2023-07-13T12:05:24;3.70;;;1.20;;
80836;SDS011;70251;60.008;30.404;2023-07-13T12:07:50;7.57;;;1.40;;
80836;SDS011;70251;60.008;30.404;2023-07-13T12:12:55;5.57;;;1.20;;
80836;SDS011;70251;60.008;30.404;2023-07-13T12:15:23;5.30;;;1.20;;
80836;SDS011;70251;60.008;30.404;2023-07-13T12:17:54;3.85;;;1.10;;
80836;SDS011;70251;60.008;30.404;2023-07-13T12:20:23;4.63;;;1.07;;
80836;SDS011;70251;60.008;30.404;2023-07-13T12:22:54;6.57;;;1.10;;
80836;SDS011;70251;60.008;30.404;2023-07-13T12:25:20;3.78;;;1.10;;
80836;SDS011;70251;60.008;30.404;2023-07-13T12:27:55;5.55;;;1.35;;
80836;SDS011;70251;60.008;30.404;2023-07-13T12:30:27;5.40;;;1.30;;
80836;SDS011;70251;60.008;30.404;2023-07-13T12:33:05;8.80;;;1.60;;
80836;SDS011;70251;60.008;30.404;2023-07-13T12:35:46;4.85;;;1.27;;
80836;SDS011;70251;60.008;30.404;2023-07-13T12:38:14;6.00;;;1.30;;
80836;SDS011;70251;60.008;30.404;2023-07-13T12:40:41;4.05;;;1.00;;
80836;SDS011;70251;60.008;30.404;2023-07-13T12:43:14;5.18;;;1.30;;
80836;SDS011;70251;60.008;30.404;2023-07-13T12:48:27;5.13;;;1.52;;
80836;SDS011;70251;60.008;30.404;2023-07-13T12:50:53;5.37;;;1.47;;
80836;SDS011;70251;60.008;30.404;2023-07-13T12:53:21;4.35;;;1.13;;
80836;SDS011;70251;60.008;30.404;2023-07-13T12:55:54;6.13;;;1.30;;
80836;SDS011;70251;60.008;30.404;2023-07-13T12:58:29;4.73;;;1.23;;
80836;SDS011;70251;60.008;30.404;2023-07-13T13:01:20;4.32;;;1.40;;
80836;SDS011;70251;60.008;30.404;2023-07-13T13:03:50;4.28;;;1.27;;
80836;SDS011;70251;60.008;30.404;2023-07-13T13:08:55;8.60;;;1.50;;
80836;SDS011;70251;60.008;30.404;2023-07-13T13:11:23;3.30;;;1.07;;
80836;SDS011;70251;60.008;30.404;2023-07-13T13:13:51;5.82;;;1.40;;
80836;SDS011;70251;60.008;30.404;2023-07-13T13:18:47;4.03;;;1.00;;
80836;SDS011;70251;60.008;30.404;2023-07-13T13:21:14;6.57;;;2.00;;
80836;SDS011;70251;60.008;30.404;2023-07-13T13:23:43;4.73;;;1.50;;
80836;SDS011;70251;60.008;30.404;2023-07-13T13:26:13;5.72;;;1.52;;
80836;SDS011;70251;60.008;30.404;2023-07-13T13:28:42;5.22;;;1.40;;
80836;SDS011;70251;60.008;30.404;2023-07-13T13:31:09;3.70;;;1.40;;
80836;SDS011;70251;60.008;30.404;2023-07-13T13:33:38;4.43;;;1.20;;
80836;SDS011;70251;60.008;30.404;2023-07-13T13:36:13;4.63;;;1.30;;
80836;SDS011;70251;60.008;30.404;2023-07-13T13:38:43;5.80;;;1.60;;
80836;SDS011;70251;60.008;30.404;2023-07-13T13:41:10;4.63;;;1.30;;
80836;SDS011;70251;60.008;30.404;2023-07-13T13:43:40;5.22;;;1.50;;
80836;SDS011;70251;60.008;30.404;2023-07-13T13:46:13;3.65;;;1.40;;
80836;SDS011;70251;60.008;30.404;2023-07-13T13:48:50;7.20;;;1.53;;
80836;SDS011;70251;60.008;30.404;2023-07-13T13:51:17;4.55;;;1.50;;
80836;SDS011;70251;60.008;30.404;2023-07-13T13:53:45;4.78;;;1.40;;
80836;SDS011;70251;60.008;30.404;2023-07-13T13:56:11;5.38;;;1.30;;
80836;SDS011;70251;60.008;30.404;2023-07-13T13:58:38;4.07;;;1.33;;
80836;SDS011;70251;60.008;30.404;2023-07-13T14:01:04;5.97;;;1.50;;
80836;SDS011;70251;60.008;30.404;2023-07-13T14:03:33;5.15;;;1.60;;
80836;SDS011;70251;60.008;30.404;2023-07-13T14:05:59;5.55;;;1.50;;
80836;SDS011;70251;60.008;30.404;2023-07-13T14:08:25;3.53;;;1.45;;
80836;SDS011;70251;60.008;30.404;2023-07-13T14:10:53;4.60;;;1.60;;
80836;SDS011;70251;60.008;30.404;2023-07-13T14:13:22;5.18;;;1.58;;
80836;SDS011;70251;60.008;30.404;2023-07-13T14:15:52;6.00;;;1.70;;
80836;SDS011;70251;60.008;30.404;2023-07-13T14:18:19;5.25;;;1.50;;
80836;SDS011;70251;60.008;30.404;2023-07-13T14:20:53;4.67;;;1.50;;
80836;SDS011;70251;60.008;30.404;2023-07-13T14:23:19;5.13;;;1.38;;
80836;SDS011;70251;60.008;30.404;2023-07-13T14:25:45;7.30;;;1.70;;
80836;SDS011;70251;60.008;30.404;2023-07-13T14:28:19;5.43;;;1.58;;
80836;SDS011;70251;60.008;30.404;2023-07-13T14:30:48;4.97;;;1.40;;
80836;SDS011;70251;60.008;30.404;2023-07-13T14:33:14;6.35;;;1.60;;
80836;SDS011;70251;60.008;30.404;2023-07-13T14:35:40;4.00;;;1.55;;
80836;SDS011;70251;60.008;30.404;2023-07-13T14:38:14;4.73;;;1.70;;
80836;SDS011;70251;60.008;30.404;2023-07-13T14:40:43;3.75;;;1.50;;
80836;SDS011;70251;60.008;30.404;2023-07-13T14:43:12;6.35;;;1.50;;
80836;SDS011;70251;60.008;30.404;2023-07-13T14:45:43;6.40;;;1.50;;
80836;SDS011;70251;60.008;30.404;2023-07-13T14:48:20;7.72;;;1.58;;
80836;SDS011;70251;60.008;30.404;2023-07-13T14:50:50;5.55;;;1.40;;
80836;SDS011;70251;60.008;30.404;2023-07-13T14:53:21;5.47;;;1.60;;
80836;SDS011;70251;60.008;30.404;2023-07-13T14:55:47;5.63;;;1.70;;
80836;SDS011;70251;60.008;30.404;2023-07-13T14:58:13;4.63;;;1.70;;
80836;SDS011;70251;60.008;30.404;2023-07-13T15:00:39;6.35;;;1.80;;
80836;SDS011;70251;60.008;30.404;2023-07-13T15:03:05;8.43;;;1.70;;
80836;SDS011;70251;60.008;30.404;2023-07-13T15:05:46;6.43;;;1.73;;
80836;SDS011;70251;60.008;30.404;2023-07-13T15:08:13;5.80;;;1.70;;
80836;SDS011;70251;60.008;30.404;2023-07-13T15:10:40;4.30;;;1.60;;
80836;SDS011;70251;60.008;30.404;2023-07-13T15:13:13;4.18;;;1.20;;
80836;SDS011;70251;60.008;30.404;2023-07-13T15:15:39;4.63;;;1.60;;
80836;SDS011;70251;60.008;30.404;2023-07-13T15:18:09;3.45;;;1.30;;
80836;SDS011;70251;60.008;30.404;2023-07-13T15:20:37;5.13;;;1.73;;
80836;SDS011;70251;60.008;30.404;2023-07-13T15:23:02;5.63;;;1.67;;
80836;SDS011;70251;60.008;30.404;2023-07-13T15:25:29;6.77;;;1.37;;
80836;SDS011;70251;60.008;30.404;2023-07-13T15:27:57;4.72;;;1.55;;
80836;SDS011;70251;60.008;30.404;2023-07-13T15:30:28;5.18;;;1.60;;
80836;SDS011;70251;60.008;30.404;2023-07-13T15:33:00;8.45;;;2.38;;
80836;SDS011;70251;60.008;30.404;2023-07-13T15:35:34;5.20;;;1.70;;